createdAt,value
2017-11-14T00:00:39.818Z,2.90
2017-11-14T00:03:08.134Z,2.80
2017-11-14T00:05:36.420Z,2.80
2017-11-14T00:08:04.754Z,2.80
2017-11-14T00:10:33.045Z,2.70
2017-11-14T00:13:01.334Z,2.70
2017-11-14T00:15:29.645Z,2.70
2017-11-14T00:17:57.929Z,2.60
2017-11-14T00:20:26.304Z,2.60
2017-11-14T00:22:54.590Z,2.50
2017-11-14T00:25:22.125Z,2.50
2017-11-14T00:27:50.418Z,2.40
2017-11-14T00:30:19.254Z,2.40
2017-11-14T00:32:47.545Z,2.40
2017-11-14T00:35:15.834Z,2.30
2017-11-14T00:37:44.144Z,2.30
2017-11-14T00:40:12.428Z,2.30
2017-11-14T00:42:40.744Z,2.30
2017-11-14T00:45:09.030Z,2.20
2017-11-14T00:47:37.353Z,2.20
2017-11-14T00:50:05.649Z,2.20
2017-11-14T00:52:33.985Z,2.20
2017-11-14T00:55:02.281Z,2.10
2017-11-14T00:57:30.569Z,2.10
2017-11-14T00:59:58.874Z,2.10
2017-11-14T01:02:27.162Z,2.00
2017-11-14T01:04:55.474Z,2.00
2017-11-14T01:07:23.765Z,2.00
2017-11-14T01:09:52.074Z,1.90
2017-11-14T01:12:20.359Z,1.90
2017-11-14T01:14:48.692Z,1.90
2017-11-14T01:17:17.007Z,1.90
2017-11-14T01:19:45.298Z,1.80
2017-11-14T01:22:13.610Z,1.80
2017-11-14T01:24:41.907Z,1.80
2017-11-14T01:27:10.218Z,1.70
2017-11-14T01:29:37.833Z,1.70
2017-11-14T01:32:06.145Z,1.70
2017-11-14T01:34:34.449Z,1.70
2017-11-14T01:37:02.795Z,1.70
2017-11-14T01:39:31.113Z,1.70
2017-11-14T01:41:59.401Z,1.60
2017-11-14T01:44:27.741Z,1.60
2017-11-14T01:46:56.030Z,1.60
2017-11-14T01:49:24.350Z,1.60
2017-11-14T01:51:52.634Z,1.50
2017-11-14T01:54:20.950Z,1.50
2017-11-14T01:56:49.237Z,1.50
2017-11-14T01:59:17.524Z,1.50
2017-11-14T02:01:45.826Z,1.50
2017-11-14T02:04:14.167Z,1.50
2017-11-14T02:06:42.472Z,1.40
2017-11-14T02:09:10.761Z,1.50
2017-11-14T02:11:39.097Z,1.40
2017-11-14T02:14:07.398Z,1.40
2017-11-14T02:16:35.729Z,1.40
2017-11-14T02:19:04.018Z,1.40
2017-11-14T02:21:32.409Z,1.40
2017-11-14T02:24:00.722Z,1.30
2017-11-14T02:26:29.182Z,1.30
2017-11-14T02:28:57.497Z,1.30
2017-11-14T02:31:25.790Z,1.30
2017-11-14T02:33:54.097Z,1.30
2017-11-14T02:36:22.387Z,1.30
2017-11-14T02:38:50.694Z,1.20
2017-11-14T02:41:18.978Z,1.20
2017-11-14T02:43:47.315Z,1.20
2017-11-14T02:46:15.614Z,1.20
2017-11-14T02:48:43.909Z,1.20
2017-11-14T02:51:12.225Z,1.20
2017-11-14T02:53:40.513Z,1.20
2017-11-14T02:56:08.822Z,1.20
2017-11-14T02:58:37.111Z,1.20
2017-11-14T03:01:05.438Z,1.20
2017-11-14T03:03:33.722Z,1.20
2017-11-14T03:06:02.037Z,1.20
2017-11-14T03:08:29.558Z,1.20
2017-11-14T03:10:57.885Z,1.20
2017-11-14T03:13:26.170Z,1.20
2017-11-14T03:15:54.458Z,1.20
2017-11-14T03:18:22.765Z,1.20
2017-11-14T03:20:51.056Z,1.20
2017-11-14T03:23:19.365Z,1.20
2017-11-14T03:25:47.654Z,1.20
2017-11-14T03:28:15.955Z,1.20
2017-11-14T03:30:44.239Z,1.30
2017-11-14T03:33:12.546Z,1.30
2017-11-14T03:35:40.829Z,1.30
2017-11-14T03:38:09.149Z,1.30
2017-11-14T03:40:37.429Z,1.30
2017-11-14T03:43:05.734Z,1.30
2017-11-14T03:45:34.041Z,1.30
2017-11-14T03:48:01.561Z,1.30
2017-11-14T03:50:29.870Z,1.30
2017-11-14T03:52:58.157Z,1.40
2017-11-14T03:55:27.214Z,1.40
2017-11-14T03:57:55.616Z,1.40
2017-11-14T04:00:23.961Z,1.50
2017-11-14T04:02:52.254Z,1.50
2017-11-14T04:05:20.543Z,1.50
2017-11-14T04:07:48.868Z,1.60
2017-11-14T04:10:18.074Z,1.60
2017-11-14T04:12:46.394Z,1.60
2017-11-14T04:15:14.679Z,1.70
2017-11-14T04:17:42.984Z,1.70
2017-11-14T04:20:11.282Z,1.60
2017-11-14T04:22:39.566Z,1.60
2017-11-14T04:25:07.883Z,1.60
2017-11-14T04:27:36.178Z,1.60
2017-11-14T04:30:04.487Z,1.60
2017-11-14T04:32:32.774Z,1.50
2017-11-14T04:35:00.378Z,1.50
2017-11-14T04:37:28.664Z,1.50
2017-11-14T04:39:56.241Z,1.40
2017-11-14T04:42:24.521Z,1.40
2017-11-14T04:44:53.513Z,1.40
2017-11-14T04:47:21.825Z,1.40
2017-11-14T04:49:50.126Z,1.40
2017-11-14T04:52:18.429Z,1.40
2017-11-14T04:54:46.715Z,1.40
2017-11-14T04:57:15.031Z,1.40
2017-11-14T04:59:43.322Z,1.40
2017-11-14T05:02:11.704Z,1.50
2017-11-14T05:04:39.993Z,1.50
2017-11-14T05:07:08.298Z,1.40
2017-11-14T05:09:36.614Z,1.50
2017-11-14T05:12:04.906Z,1.40
2017-11-14T05:14:33.217Z,1.40
2017-11-14T05:17:01.510Z,1.40
2017-11-14T05:19:29.818Z,1.40
2017-11-14T05:21:58.114Z,1.40
2017-11-14T05:24:26.490Z,1.40
2017-11-14T05:26:54.781Z,1.40
2017-11-14T05:29:23.065Z,1.40
2017-11-14T05:31:51.377Z,1.40
2017-11-14T05:34:19.665Z,1.40
2017-11-14T05:36:47.978Z,1.40
2017-11-14T05:39:16.271Z,1.30
2017-11-14T05:41:44.577Z,1.30
2017-11-14T05:44:12.861Z,1.30
2017-11-14T05:46:42.165Z,1.20
2017-11-14T05:49:10.446Z,1.20
2017-11-14T05:51:38.745Z,1.20
2017-11-14T05:54:07.053Z,1.20
2017-11-14T05:56:35.338Z,1.20
2017-11-14T05:59:04.464Z,1.20
2017-11-14T06:01:32.753Z,1.20
2017-11-14T06:04:01.062Z,1.30
2017-11-14T06:06:29.366Z,1.40
2017-11-14T06:08:57.683Z,1.40
2017-11-14T06:11:25.973Z,1.50
2017-11-14T06:13:54.302Z,1.50
2017-11-14T06:16:22.598Z,1.60
2017-11-14T06:18:50.894Z,1.60
2017-11-14T06:21:19.214Z,1.70
2017-11-14T06:23:47.514Z,1.70
2017-11-14T06:26:15.821Z,1.70
2017-11-14T06:28:44.100Z,1.70
2017-11-14T06:31:12.406Z,1.70
2017-11-14T06:33:40.703Z,1.70
2017-11-14T06:36:09.010Z,1.70
2017-11-14T06:38:37.298Z,1.80
2017-11-14T06:41:05.611Z,1.80
2017-11-14T06:43:33.894Z,1.80
2017-11-14T06:46:02.214Z,1.90
2017-11-14T06:48:29.730Z,1.90
2017-11-14T06:50:58.061Z,2.00
2017-11-14T06:53:26.340Z,2.00
2017-11-14T06:55:54.650Z,2.10
2017-11-14T06:58:22.181Z,2.10
2017-11-14T07:00:50.485Z,2.10
2017-11-14T07:03:18.765Z,2.20
2017-11-14T07:05:47.073Z,2.20
2017-11-14T07:08:15.365Z,2.30
2017-11-14T07:10:43.681Z,2.30
2017-11-14T07:13:11.974Z,2.40
2017-11-14T07:15:40.280Z,2.50
2017-11-14T07:18:08.583Z,2.60
2017-11-14T07:20:36.907Z,2.60
2017-11-14T07:23:05.199Z,2.70
2017-11-14T07:25:33.509Z,2.80
2017-11-14T07:28:01.032Z,2.80
2017-11-14T07:30:29.916Z,2.90
2017-11-14T07:32:58.214Z,3.00
2017-11-14T07:35:26.528Z,3.10
2017-11-14T07:37:54.815Z,3.10
2017-11-14T07:40:23.130Z,3.20
2017-11-14T07:42:51.429Z,3.20
2017-11-14T07:45:19.745Z,3.20
2017-11-14T07:47:48.042Z,3.30
2017-11-14T07:50:16.361Z,3.30
2017-11-14T07:52:43.889Z,3.30
2017-11-14T07:55:12.209Z,3.50
2017-11-14T07:57:40.527Z,3.50
2017-11-14T08:00:08.813Z,3.60
2017-11-14T08:02:37.121Z,3.70
2017-11-14T08:05:05.411Z,3.80
2017-11-14T08:07:33.718Z,3.90
2017-11-14T08:10:02.020Z,3.90
2017-11-14T08:12:30.345Z,4.00
2017-11-14T08:14:59.534Z,4.00
2017-11-14T08:17:27.866Z,4.10
2017-11-14T08:19:56.153Z,4.20
2017-11-14T08:22:24.459Z,4.30
2017-11-14T08:24:52.752Z,4.40
2017-11-14T08:27:21.061Z,4.50
2017-11-14T08:29:49.342Z,4.60
2017-11-14T08:32:17.644Z,4.60
2017-11-14T08:34:45.945Z,4.70
2017-11-14T08:37:14.258Z,4.80
2017-11-14T08:39:42.537Z,4.80
2017-11-14T08:42:10.845Z,5.00
2017-11-14T08:44:39.138Z,5.00
2017-11-14T08:47:07.503Z,5.00
2017-11-14T08:49:35.797Z,5.00
2017-11-14T08:52:04.096Z,5.00
2017-11-14T08:54:32.389Z,5.00
2017-11-14T08:57:00.697Z,4.90
2017-11-14T08:59:29.053Z,4.80
2017-11-14T09:01:57.376Z,4.90
2017-11-14T09:04:25.657Z,5.00
2017-11-14T09:06:53.957Z,5.10
2017-11-14T09:09:22.241Z,5.40
2017-11-14T09:11:49.784Z,5.30
2017-11-14T09:14:18.080Z,6.00
2017-11-14T09:16:46.390Z,6.40
2017-11-14T09:19:14.682Z,6.60
2017-11-14T09:21:42.994Z,6.80
2017-11-14T09:24:11.289Z,7.10
2017-11-14T09:26:39.794Z,7.20
2017-11-14T09:29:08.086Z,7.30
2017-11-14T09:31:36.378Z,7.30
2017-11-14T09:34:04.697Z,7.20
2017-11-14T09:36:32.994Z,7.20
2017-11-14T09:39:01.478Z,7.20
2017-11-14T09:41:29.762Z,7.20
2017-11-14T09:43:59.050Z,7.30
2017-11-14T09:46:27.341Z,7.40
2017-11-14T09:48:55.642Z,7.60
2017-11-14T09:51:23.930Z,7.90
2017-11-14T09:53:52.245Z,8.10
2017-11-14T09:56:20.537Z,8.20
2017-11-14T09:58:48.851Z,8.40
2017-11-14T10:01:17.147Z,8.50
2017-11-14T10:03:45.465Z,8.60
2017-11-14T10:06:13.757Z,8.70
2017-11-14T10:08:42.070Z,8.80
2017-11-14T10:11:09.592Z,8.80
2017-11-14T10:13:37.917Z,9.00
2017-11-14T10:16:06.228Z,8.90
2017-11-14T10:18:34.542Z,8.80
2017-11-14T10:21:02.830Z,8.80
2017-11-14T10:23:31.150Z,8.80
2017-11-14T10:25:59.443Z,8.80
2017-11-14T10:28:27.783Z,8.90
2017-11-14T10:30:56.077Z,9.00
2017-11-14T10:33:24.399Z,9.10
2017-11-14T10:35:52.689Z,9.10
2017-11-14T10:38:21.009Z,9.10
2017-11-14T10:40:49.304Z,9.00
2017-11-14T10:43:17.618Z,9.00
2017-11-14T10:45:45.912Z,9.00
2017-11-14T10:48:14.237Z,9.10
2017-11-14T10:50:43.009Z,9.30
2017-11-14T10:53:11.801Z,9.30
2017-11-14T10:55:40.129Z,9.40
2017-11-14T10:58:08.441Z,9.40
2017-11-14T11:00:39.411Z,9.40
2017-11-14T11:03:07.767Z,9.40
2017-11-14T11:05:36.065Z,9.50
2017-11-14T11:08:04.446Z,9.50
2017-11-14T11:10:32.734Z,9.50
2017-11-14T11:13:01.030Z,9.30
2017-11-14T11:15:29.347Z,9.10
2017-11-14T11:17:57.645Z,9.00
2017-11-14T11:20:25.966Z,9.00
2017-11-14T11:22:54.261Z,9.10
2017-11-14T11:25:22.568Z,9.20
2017-11-14T11:27:50.864Z,9.20
2017-11-14T11:30:19.170Z,9.20
2017-11-14T11:32:47.465Z,9.30
2017-11-14T11:35:15.765Z,9.20
2017-11-14T11:37:44.058Z,9.20
2017-11-14T11:40:12.365Z,9.20
2017-11-14T11:42:40.653Z,9.20
2017-11-14T11:45:08.973Z,9.20
2017-11-14T11:47:37.268Z,9.10
2017-11-14T11:50:05.585Z,9.10
2017-11-14T11:52:33.886Z,9.10
2017-11-14T11:55:02.210Z,9.10
2017-11-14T11:57:30.522Z,9.20
2017-11-14T11:59:58.853Z,9.30
2017-11-14T12:02:27.161Z,9.40
2017-11-14T12:04:55.499Z,9.60
2017-11-14T12:07:23.798Z,9.70
2017-11-14T12:09:52.122Z,9.90
2017-11-14T12:12:20.498Z,10.10
2017-11-14T12:14:48.814Z,10.40
2017-11-14T12:17:17.118Z,10.60
2017-11-14T12:19:45.425Z,10.80
2017-11-14T12:22:13.722Z,10.70
2017-11-14T12:24:42.033Z,10.60
2017-11-14T12:27:10.325Z,10.70
2017-11-14T12:29:38.645Z,10.60
2017-11-14T12:32:06.958Z,10.50
2017-11-14T12:34:35.270Z,10.50
2017-11-14T12:37:03.570Z,10.50
2017-11-14T12:39:31.892Z,10.40
2017-11-14T12:42:00.180Z,10.30
2017-11-14T12:44:28.491Z,10.40
2017-11-14T12:46:56.780Z,10.50
2017-11-14T12:49:25.129Z,10.40
2017-11-14T12:51:53.426Z,10.40
2017-11-14T12:54:21.709Z,10.40
2017-11-14T12:56:50.018Z,10.50
2017-11-14T12:59:18.306Z,10.60
2017-11-14T13:01:46.609Z,10.60
2017-11-14T13:04:14.910Z,10.60
2017-11-14T13:06:43.219Z,10.70
2017-11-14T13:09:11.505Z,10.80
2017-11-14T13:11:39.813Z,10.90
2017-11-14T13:14:08.098Z,11.00
2017-11-14T13:16:36.425Z,11.00
2017-11-14T13:19:04.714Z,10.90
2017-11-14T13:21:33.033Z,10.80
2017-11-14T13:24:01.325Z,10.60
2017-11-14T13:26:29.646Z,10.50
2017-11-14T13:28:57.946Z,10.30
2017-11-14T13:31:26.277Z,10.10
2017-11-14T13:33:54.581Z,10.00
2017-11-14T13:36:22.901Z,10.00
2017-11-14T13:38:51.185Z,9.90
2017-11-14T13:41:19.486Z,9.90
2017-11-14T13:43:47.774Z,9.80
2017-11-14T13:46:16.089Z,9.80
2017-11-14T13:48:44.386Z,9.70
2017-11-14T13:51:12.703Z,9.60
2017-11-14T13:53:41.001Z,9.60
2017-11-14T13:56:09.305Z,9.60
2017-11-14T13:58:37.588Z,9.60
2017-11-14T14:01:05.902Z,9.60
2017-11-14T14:03:34.185Z,9.60
2017-11-14T14:06:02.505Z,9.60
2017-11-14T14:08:30.804Z,9.50
2017-11-14T14:10:59.112Z,9.50
2017-11-14T14:13:27.478Z,9.50
2017-11-14T14:15:55.834Z,9.50
2017-11-14T14:18:24.129Z,9.40
2017-11-14T14:20:51.674Z,9.40
2017-11-14T14:23:19.965Z,9.20
2017-11-14T14:25:48.298Z,9.30
2017-11-14T14:28:16.595Z,9.30
2017-11-14T14:30:44.878Z,9.40
2017-11-14T14:33:13.181Z,9.50
2017-11-14T14:35:41.466Z,9.50
2017-11-14T14:38:09.778Z,9.50
2017-11-14T14:40:38.081Z,9.50
2017-11-14T14:43:06.383Z,9.50
2017-11-14T14:45:34.666Z,9.50
2017-11-14T14:48:02.982Z,9.50
2017-11-14T14:50:31.280Z,9.60
2017-11-14T14:52:59.586Z,9.50
2017-11-14T14:55:27.897Z,9.50
2017-11-14T14:57:56.197Z,9.50
2017-11-14T15:00:24.487Z,9.50
2017-11-14T15:02:52.797Z,9.50
2017-11-14T15:05:21.094Z,9.40
2017-11-14T15:07:49.420Z,9.40
2017-11-14T15:10:17.762Z,9.40
2017-11-14T15:12:46.118Z,9.40
2017-11-14T15:15:14.409Z,9.30
2017-11-14T15:17:42.718Z,9.20
2017-11-14T15:20:11.005Z,9.10
2017-11-14T15:22:39.330Z,9.10
2017-11-14T15:25:07.627Z,8.90
2017-11-14T15:27:35.941Z,8.90
2017-11-14T15:30:04.238Z,8.80
2017-11-14T15:32:32.553Z,8.70
2017-11-14T15:35:00.841Z,8.50
2017-11-14T15:37:29.153Z,8.40
2017-11-14T15:39:57.446Z,8.30
2017-11-14T15:42:25.760Z,8.20
2017-11-14T15:44:54.047Z,8.20
2017-11-14T15:47:22.361Z,8.10
2017-11-14T15:49:50.653Z,8.00
2017-11-14T15:52:19.062Z,7.90
2017-11-14T15:54:47.364Z,7.90
2017-11-14T15:57:15.669Z,7.80
2017-11-14T15:59:43.966Z,7.70
2017-11-14T16:02:12.276Z,7.60
2017-11-14T16:04:40.570Z,7.50
2017-11-14T16:07:08.898Z,7.50
2017-11-14T16:09:37.213Z,7.40
2017-11-14T16:12:05.512Z,7.30
2017-11-14T16:14:33.823Z,7.20
2017-11-14T16:17:02.123Z,7.20
2017-11-14T16:19:29.673Z,7.20
2017-11-14T16:21:57.957Z,7.00
2017-11-14T16:24:26.266Z,6.90
2017-11-14T16:26:54.564Z,6.90
2017-11-14T16:29:22.885Z,6.90
2017-11-14T16:31:51.173Z,6.80
2017-11-14T16:34:19.485Z,6.80
2017-11-14T16:36:47.769Z,6.70
2017-11-14T16:39:16.085Z,6.70
2017-11-14T16:41:44.398Z,6.70
2017-11-14T16:44:12.709Z,6.70
2017-11-14T16:46:41.007Z,6.70
2017-11-14T16:49:09.320Z,6.60
2017-11-14T16:51:37.610Z,6.70
2017-11-14T16:54:05.922Z,6.60
2017-11-14T16:56:34.209Z,6.60
2017-11-14T16:59:02.529Z,6.70
2017-11-14T17:01:30.821Z,6.70
2017-11-14T17:03:59.123Z,6.70
2017-11-14T17:06:27.417Z,6.60
2017-11-14T17:08:55.724Z,6.60
2017-11-14T17:11:24.026Z,6.60
2017-11-14T17:13:52.350Z,6.60
2017-11-14T17:16:20.645Z,6.60
2017-11-14T17:18:48.953Z,6.60
2017-11-14T17:21:17.253Z,6.50
2017-11-14T17:23:45.559Z,6.50
2017-11-14T17:26:13.860Z,6.40
2017-11-14T17:28:42.179Z,6.40
2017-11-14T17:31:10.469Z,6.40
2017-11-14T17:33:38.791Z,6.40
2017-11-14T17:36:07.094Z,6.40
2017-11-14T17:38:35.405Z,6.40
2017-11-14T17:41:03.702Z,6.40
2017-11-14T17:43:32.026Z,6.30
2017-11-14T17:46:00.318Z,6.30
2017-11-14T17:48:28.643Z,6.20
2017-11-14T17:50:56.930Z,6.20
2017-11-14T17:53:25.230Z,6.20
2017-11-14T17:55:53.550Z,6.20
2017-11-14T17:58:21.837Z,6.20
2017-11-14T18:00:50.146Z,6.20
2017-11-14T18:03:18.449Z,6.20
2017-11-14T18:05:46.788Z,6.10
2017-11-14T18:08:15.093Z,6.10
2017-11-14T18:10:43.405Z,6.00
2017-11-14T18:13:11.696Z,6.00
2017-11-14T18:15:40.009Z,6.00
2017-11-14T18:18:08.310Z,5.90
2017-11-14T18:20:36.617Z,5.90
2017-11-14T18:23:04.915Z,5.90
2017-11-14T18:25:33.226Z,5.80
2017-11-14T18:28:01.521Z,5.80
2017-11-14T18:30:29.846Z,5.80
2017-11-14T18:32:59.166Z,5.80
2017-11-14T18:35:27.478Z,5.80
2017-11-14T18:37:55.769Z,5.80
2017-11-14T18:40:23.304Z,5.80
2017-11-14T18:42:51.606Z,5.80
2017-11-14T18:45:19.917Z,5.90
2017-11-14T18:47:48.222Z,5.90
2017-11-14T18:50:16.546Z,5.90
2017-11-14T18:52:44.845Z,5.90
2017-11-14T18:55:13.156Z,5.80
2017-11-14T18:57:41.461Z,5.80
2017-11-14T19:00:09.769Z,5.80
2017-11-14T19:02:38.064Z,5.80
2017-11-14T19:05:06.376Z,5.90
2017-11-14T19:07:34.678Z,5.90
2017-11-14T19:10:02.989Z,6.00
2017-11-14T19:12:31.284Z,6.00
2017-11-14T19:14:59.593Z,6.10
2017-11-14T19:17:27.928Z,6.20
2017-11-14T19:19:55.466Z,6.20
2017-11-14T19:22:23.754Z,6.20
2017-11-14T19:24:52.058Z,6.20
2017-11-14T19:27:20.354Z,6.30
2017-11-14T19:29:48.639Z,6.30
2017-11-14T19:32:16.954Z,6.40
2017-11-14T19:34:45.253Z,6.40
2017-11-14T19:37:13.565Z,6.40
2017-11-14T19:39:41.851Z,6.50
2017-11-14T19:42:10.152Z,6.50
2017-11-14T19:44:38.446Z,6.50
2017-11-14T19:47:06.765Z,6.50
2017-11-14T19:49:35.059Z,6.60
2017-11-14T19:52:03.375Z,6.60
2017-11-14T19:54:31.661Z,6.60
2017-11-14T19:56:59.973Z,6.60
2017-11-14T19:59:28.262Z,6.60
2017-11-14T20:01:56.570Z,6.60
2017-11-14T20:04:24.870Z,6.70
2017-11-14T20:06:53.180Z,6.70
2017-11-14T20:09:21.514Z,6.70
2017-11-14T20:11:49.832Z,6.80
2017-11-14T20:14:18.122Z,6.80
2017-11-14T20:16:46.425Z,6.80
2017-11-14T20:19:14.718Z,6.80
2017-11-14T20:21:43.033Z,6.80
2017-11-14T20:24:11.326Z,6.80
2017-11-14T20:26:39.642Z,6.80
2017-11-14T20:29:07.951Z,6.80
2017-11-14T20:31:42.070Z,6.80
2017-11-14T20:34:10.360Z,6.80
2017-11-14T20:36:38.678Z,6.70
2017-11-14T20:39:06.967Z,6.70
2017-11-14T20:41:34.517Z,6.70
2017-11-14T20:44:02.800Z,6.70
2017-11-14T20:46:31.126Z,6.70
2017-11-14T20:48:59.417Z,6.60
2017-11-14T20:51:27.728Z,6.60
2017-11-14T20:53:56.018Z,6.60
2017-11-14T20:56:24.334Z,6.60
2017-11-14T20:58:52.630Z,6.60
2017-11-14T21:01:20.937Z,6.60
2017-11-14T21:03:49.238Z,6.60
2017-11-14T21:06:17.550Z,6.70
2017-11-14T21:08:45.854Z,6.70
2017-11-14T21:11:14.149Z,6.70
2017-11-14T21:13:42.462Z,6.70
2017-11-14T21:16:11.305Z,6.70
2017-11-14T21:18:39.629Z,6.60
2017-11-14T21:21:07.934Z,6.60
2017-11-14T21:23:36.246Z,6.60
2017-11-14T21:26:04.542Z,6.60
2017-11-14T21:28:32.861Z,6.60
2017-11-14T21:31:01.168Z,6.60
2017-11-14T21:33:29.485Z,6.60
2017-11-14T21:35:57.800Z,6.60
2017-11-14T21:38:26.121Z,6.60
2017-11-14T21:40:54.416Z,6.60
2017-11-14T21:43:22.731Z,6.60
2017-11-14T21:45:51.041Z,6.60
2017-11-14T21:48:19.354Z,6.50
2017-11-14T21:50:47.702Z,6.60
2017-11-14T21:53:16.046Z,6.60
2017-11-14T21:55:44.350Z,6.60
2017-11-14T21:58:12.658Z,6.50
2017-11-14T22:00:40.973Z,6.50
2017-11-14T22:03:09.261Z,6.50
2017-11-14T22:05:37.581Z,6.50
2017-11-14T22:08:05.896Z,6.50
2017-11-14T22:10:34.235Z,6.50
2017-11-14T22:13:02.530Z,6.50
2017-11-14T22:15:30.845Z,6.50
2017-11-14T22:17:59.152Z,6.50
2017-11-14T22:20:27.452Z,6.50
2017-11-14T22:22:55.765Z,6.50
2017-11-14T22:25:24.057Z,6.50
2017-11-14T22:27:52.381Z,6.50
2017-11-14T22:30:20.665Z,6.50
2017-11-14T22:32:48.957Z,6.50
2017-11-14T22:35:17.270Z,6.50
2017-11-14T22:37:45.562Z,6.50
2017-11-14T22:40:13.878Z,6.50
2017-11-14T22:42:42.175Z,6.50
2017-11-14T22:45:26.201Z,6.50
2017-11-14T22:47:54.493Z,6.40
2017-11-14T22:50:22.814Z,6.40
2017-11-14T22:52:51.104Z,6.40
2017-11-14T22:55:19.392Z,6.40
2017-11-14T22:57:47.714Z,6.40
2017-11-14T23:00:25.801Z,6.40
2017-11-14T23:02:54.112Z,6.50
2017-11-14T23:05:22.406Z,6.50
2017-11-14T23:07:50.735Z,6.50
2017-11-14T23:10:19.029Z,6.50
2017-11-14T23:12:47.326Z,6.50
2017-11-14T23:15:15.641Z,6.50
2017-11-14T23:17:43.929Z,6.50
2017-11-14T23:20:12.237Z,6.40
2017-11-14T23:22:40.533Z,6.40
2017-11-14T23:25:08.867Z,6.40
2017-11-14T23:27:37.178Z,6.40
2017-11-14T23:30:05.470Z,6.40
2017-11-14T23:32:33.795Z,6.40
2017-11-14T23:35:02.094Z,6.40
2017-11-14T23:37:30.408Z,6.40
2017-11-14T23:39:58.700Z,6.40
2017-11-14T23:42:27.018Z,6.40
2017-11-14T23:44:55.318Z,6.40
2017-11-14T23:47:23.646Z,6.40
2017-11-14T23:49:51.946Z,6.40
2017-11-14T23:52:20.240Z,6.40
2017-11-14T23:54:48.554Z,6.40
2017-11-14T23:57:16.853Z,6.40
2017-11-14T23:59:46.299Z,6.40
